createdAt,value
2023-01-17T00:02:26.616Z,101019.09
2023-01-17T00:05:12.953Z,100874.25
2023-01-17T00:07:58.989Z,100894.53
2023-01-17T00:10:30.757Z,100978.66
2023-01-17T00:13:02.776Z,100961.75
2023-01-17T00:15:33.293Z,101037.50
2023-01-17T00:18:02.481Z,100913.25
2023-01-17T00:20:50.460Z,101010.22
2023-01-17T00:23:38.104Z,100906.28
2023-01-17T00:26:13.179Z,100825.97
2023-01-17T00:28:42.890Z,100806.91
2023-01-17T00:31:12.855Z,100853.66
2023-01-17T00:33:40.615Z,100752.69
2023-01-17T00:36:09.589Z,100911.44
2023-01-17T00:38:38.904Z,100873.88
2023-01-17T00:41:09.867Z,100851.94
2023-01-17T00:43:56.739Z,101034.56
2023-01-17T00:46:44.151Z,100959.63
2023-01-17T00:49:30.432Z,101021.63
2023-01-17T00:52:16.908Z,100963.16
2023-01-17T00:55:03.240Z,100864.59
2023-01-17T00:57:51.205Z,100932.88
2023-01-17T01:00:37.652Z,101086.91
2023-01-17T01:03:27.963Z,100911.84
2023-01-17T01:06:13.958Z,100917.66
2023-01-17T01:09:00.129Z,100971.50
2023-01-17T01:11:46.452Z,101010.34
2023-01-17T01:14:34.449Z,100984.81
2023-01-17T01:17:20.838Z,100982.81
2023-01-17T01:20:06.940Z,101018.75
2023-01-17T01:22:53.304Z,101024.47
2023-01-17T01:25:39.673Z,100923.53
2023-01-17T01:28:28.802Z,101051.59
2023-01-17T01:31:18.985Z,101053.75
2023-01-17T01:33:48.335Z,100926.09
2023-01-17T01:36:17.560Z,101051.31
2023-01-17T01:38:46.848Z,100999.91
2023-01-17T01:41:16.302Z,100985.31
2023-01-17T01:43:48.876Z,101066.00
2023-01-17T01:46:24.241Z,100922.81
2023-01-17T01:48:57.299Z,101054.75
2023-01-17T01:51:30.111Z,101093.72
2023-01-17T01:54:04.367Z,100960.78
2023-01-17T01:56:34.639Z,101072.88
2023-01-17T01:59:06.149Z,100981.38
2023-01-17T02:01:37.153Z,101056.75
2023-01-17T02:04:10.357Z,101071.44
2023-01-17T02:06:43.695Z,101097.91
2023-01-17T02:09:15.995Z,101056.56
2023-01-17T02:11:47.598Z,101040.50
2023-01-17T02:14:18.158Z,101014.28
2023-01-17T02:16:59.634Z,101013.88
2023-01-17T02:19:53.224Z,100984.03
2023-01-17T02:23:03.669Z,100993.63
2023-01-17T02:26:04.571Z,100970.72
2023-01-17T02:28:48.986Z,101121.78
2023-01-17T02:31:26.469Z,101000.97
2023-01-17T02:34:02.472Z,100996.91
2023-01-17T02:36:32.298Z,101129.28
2023-01-17T02:39:07.664Z,100989.28
2023-01-17T02:41:41.040Z,100973.53
2023-01-17T02:44:11.152Z,100998.16
2023-01-17T02:46:48.896Z,101040.06
2023-01-17T02:49:21.406Z,101106.41
2023-01-17T02:52:07.680Z,101188.13
2023-01-17T02:55:02.905Z,101023.63
2023-01-17T02:58:16.159Z,100981.38
2023-01-17T03:00:59.707Z,101075.81
2023-01-17T03:03:35.061Z,101155.50
2023-01-17T03:06:12.201Z,100978.09
2023-01-17T03:08:43.754Z,101091.78
2023-01-17T03:11:13.649Z,101160.00
2023-01-17T03:13:43.168Z,101167.88
2023-01-17T03:16:17.586Z,101174.03
2023-01-17T03:18:48.593Z,101161.78
2023-01-17T03:21:17.693Z,101165.44
2023-01-17T03:23:46.861Z,101165.38
2023-01-17T03:26:16.105Z,101173.34
2023-01-17T03:28:45.310Z,101181.97
2023-01-17T03:31:16.579Z,101165.59
2023-01-17T03:33:47.665Z,101173.44
2023-01-17T03:36:17.088Z,101163.97
2023-01-17T03:38:46.249Z,101178.00
2023-01-17T03:41:15.264Z,101177.22
2023-01-17T03:43:44.374Z,101166.84
2023-01-17T03:46:21.064Z,101177.50
2023-01-17T03:48:51.915Z,101182.78
2023-01-17T03:51:21.045Z,101184.50
2023-01-17T03:53:51.022Z,101186.44
2023-01-17T03:56:20.317Z,101169.75
2023-01-17T03:58:49.439Z,101194.56
2023-01-17T04:01:19.435Z,101203.28
2023-01-17T04:03:48.605Z,101212.00
2023-01-17T04:06:19.699Z,101203.44
2023-01-17T04:08:48.924Z,101205.41
2023-01-17T04:11:18.124Z,101205.69
2023-01-17T04:13:47.218Z,101217.91
2023-01-17T04:16:19.264Z,101204.88
2023-01-17T04:18:48.518Z,101218.91
2023-01-17T04:21:19.125Z,101209.50
2023-01-17T04:23:48.294Z,101220.00
2023-01-17T04:26:17.415Z,101215.84
2023-01-17T04:28:46.551Z,101214.25
2023-01-17T04:31:17.698Z,101216.94
2023-01-17T04:33:46.928Z,101217.00
2023-01-17T04:36:15.958Z,101197.72
2023-01-17T04:38:46.497Z,101202.19
2023-01-17T04:41:15.628Z,101208.44
2023-01-17T04:43:44.933Z,101214.66
2023-01-17T04:46:14.112Z,101195.63
2023-01-17T04:48:43.252Z,101223.00
2023-01-17T04:51:12.364Z,101226.56
2023-01-17T04:53:41.444Z,101212.78
2023-01-17T04:56:12.051Z,101216.31
2023-01-17T04:58:41.915Z,101222.56
2023-01-17T05:01:11.444Z,101213.06
2023-01-17T05:03:40.639Z,101203.00
2023-01-17T05:06:09.795Z,101202.25
2023-01-17T05:08:38.883Z,101216.13
2023-01-17T05:11:08.132Z,101187.22
2023-01-17T05:13:38.902Z,101221.34
2023-01-17T05:16:08.471Z,101217.00
2023-01-17T05:18:38.133Z,101211.81
2023-01-17T05:21:07.425Z,101185.69
2023-01-17T05:23:36.541Z,101213.63
2023-01-17T05:26:05.686Z,101217.31
2023-01-17T05:28:34.750Z,101232.97
2023-01-17T05:31:05.391Z,101216.44
2023-01-17T05:33:34.544Z,101215.94
2023-01-17T05:36:04.045Z,101215.97
2023-01-17T05:38:33.212Z,101215.28
2023-01-17T05:41:02.515Z,101218.78
2023-01-17T05:43:31.621Z,101217.13
2023-01-17T05:46:00.829Z,101219.59
2023-01-17T05:48:31.582Z,101228.28
2023-01-17T05:51:02.056Z,101230.88
2023-01-17T05:53:31.218Z,101235.25
2023-01-17T05:56:00.432Z,101228.38
2023-01-17T05:58:29.577Z,101236.28
2023-01-17T06:00:58.839Z,101215.22
2023-01-17T06:03:28.298Z,101226.97
2023-01-17T06:05:58.826Z,101230.59
2023-01-17T06:08:27.930Z,101243.59
2023-01-17T06:10:57.062Z,101242.75
2023-01-17T06:13:26.160Z,101218.47
2023-01-17T06:15:58.034Z,101235.91
2023-01-17T06:18:27.161Z,101235.13
2023-01-17T06:20:56.544Z,101212.41
2023-01-17T06:23:27.505Z,101231.84
2023-01-17T06:25:56.652Z,101231.94
2023-01-17T06:28:26.211Z,101207.41
2023-01-17T06:30:55.334Z,101231.91
2023-01-17T06:33:25.152Z,101226.50
2023-01-17T06:35:55.484Z,101213.50
2023-01-17T06:38:27.715Z,101216.34
2023-01-17T06:41:00.670Z,101166.41
2023-01-17T06:43:34.019Z,101229.47
2023-01-17T06:46:03.296Z,101225.19
2023-01-17T06:48:32.451Z,101222.59
2023-01-17T06:51:01.624Z,101230.56
2023-01-17T06:53:32.203Z,101224.22
2023-01-17T06:56:01.410Z,101233.16
2023-01-17T06:58:31.189Z,101238.34
2023-01-17T07:01:00.682Z,101247.09
2023-01-17T07:03:29.814Z,101234.13
2023-01-17T07:05:59.042Z,101214.91
2023-01-17T07:08:28.612Z,101226.34
2023-01-17T07:11:02.699Z,101204.44
2023-01-17T07:13:33.087Z,101229.00
2023-01-17T07:16:04.112Z,101204.41
2023-01-17T07:18:33.439Z,101241.16
2023-01-17T07:21:02.891Z,101240.31
2023-01-17T07:23:32.009Z,101240.41
2023-01-17T07:26:03.439Z,101239.53
2023-01-17T07:28:32.561Z,101227.47
2023-01-17T07:31:06.074Z,101214.25
2023-01-17T07:33:35.266Z,101243.88
2023-01-17T07:36:07.132Z,101248.34
2023-01-17T07:38:36.825Z,101248.31
2023-01-17T07:41:08.439Z,101230.72
2023-01-17T07:43:38.545Z,101252.56
2023-01-17T07:46:08.995Z,101252.47
2023-01-17T07:48:38.057Z,101262.09
2023-01-17T07:51:07.426Z,101233.31
2023-01-17T07:53:37.174Z,101260.41
2023-01-17T07:56:09.616Z,101263.00
2023-01-17T07:58:38.731Z,101259.53
2023-01-17T08:01:10.213Z,101263.00
2023-01-17T08:03:41.333Z,101247.28
2023-01-17T08:06:18.154Z,101255.16
2023-01-17T08:08:47.463Z,101263.06
2023-01-17T08:11:18.589Z,101255.31
2023-01-17T08:13:47.845Z,101256.19
2023-01-17T08:16:17.006Z,101252.78
2023-01-17T08:18:46.046Z,101257.03
2023-01-17T08:21:17.168Z,101257.81
2023-01-17T08:23:50.363Z,101227.41
2023-01-17T08:26:23.072Z,101258.03
2023-01-17T08:28:57.485Z,101253.69
2023-01-17T08:31:26.589Z,101259.88
2023-01-17T08:33:55.771Z,101265.97
2023-01-17T08:36:26.154Z,101271.13
2023-01-17T08:38:55.433Z,101258.91
2023-01-17T08:41:28.221Z,101272.03
2023-01-17T08:43:57.316Z,101239.63
2023-01-17T08:46:26.401Z,101264.97
2023-01-17T08:48:56.249Z,101273.56
2023-01-17T08:51:26.783Z,101234.13
2023-01-17T08:53:56.895Z,101280.53
2023-01-17T08:56:27.836Z,101280.44
2023-01-17T08:58:56.944Z,101287.31
2023-01-17T09:01:26.212Z,101277.59
2023-01-17T09:03:55.381Z,101300.31
2023-01-17T09:06:24.626Z,101280.22
2023-01-17T09:08:55.223Z,101273.00
2023-01-17T09:11:24.377Z,101299.28
2023-01-17T09:13:55.038Z,101299.28
2023-01-17T09:16:24.332Z,101298.38
2023-01-17T09:18:56.503Z,101306.97
2023-01-17T09:21:26.332Z,101307.72
2023-01-17T09:23:57.015Z,101263.56
2023-01-17T09:26:27.839Z,101311.88
2023-01-17T09:28:59.089Z,101311.03
2023-01-17T09:31:28.733Z,101305.78
2023-01-17T09:33:59.421Z,101289.91
2023-01-17T09:36:32.279Z,101291.81
2023-01-17T09:39:02.059Z,101283.06
2023-01-17T09:41:33.774Z,101248.63
2023-01-17T09:44:08.329Z,101303.88
2023-01-17T09:46:43.367Z,101286.41
2023-01-17T09:49:21.120Z,101289.97
2023-01-17T09:51:50.243Z,101284.47
2023-01-17T09:54:23.946Z,101263.47
2023-01-17T09:57:02.703Z,101297.69
2023-01-17T09:59:45.600Z,101297.53
2023-01-17T10:02:40.344Z,101290.53
2023-01-17T10:05:42.629Z,101294.13
2023-01-17T10:08:35.565Z,101283.44
2023-01-17T10:11:29.077Z,101306.97
2023-01-17T10:14:12.194Z,101283.28
2023-01-17T10:16:49.766Z,101286.78
2023-01-17T10:19:35.428Z,101294.78
2023-01-17T10:22:12.813Z,101301.78
2023-01-17T10:25:20.602Z,101298.19
2023-01-17T10:27:58.346Z,101287.53
2023-01-17T10:30:32.786Z,101313.63
2023-01-17T10:33:12.412Z,101296.16
2023-01-17T10:35:51.475Z,101301.34
2023-01-17T10:38:23.929Z,101287.97
2023-01-17T10:40:59.203Z,101311.78
2023-01-17T10:43:35.714Z,101299.50
2023-01-17T10:46:05.061Z,101313.56
2023-01-17T10:48:41.487Z,101281.91
2023-01-17T10:51:23.685Z,101308.19
2023-01-17T10:54:06.088Z,101313.41
2023-01-17T10:56:36.346Z,101302.97
2023-01-17T10:59:19.205Z,101295.91
2023-01-17T11:01:50.367Z,101302.91
2023-01-17T11:04:25.652Z,101315.06
2023-01-17T11:07:13.024Z,101318.56
2023-01-17T11:09:43.606Z,101297.56
2023-01-17T11:12:26.499Z,101281.75
2023-01-17T11:15:08.267Z,101283.38
2023-01-17T11:17:40.281Z,101297.47
2023-01-17T11:20:20.380Z,101317.47
2023-01-17T11:23:06.505Z,101310.59
2023-01-17T11:25:36.571Z,101330.66
2023-01-17T11:28:08.938Z,101325.41
2023-01-17T11:30:37.992Z,101321.09
2023-01-17T11:33:30.821Z,101317.63
2023-01-17T11:36:02.471Z,101322.88
2023-01-17T11:38:31.544Z,101309.88
2023-01-17T11:41:20.923Z,101284.44
2023-01-17T11:43:53.780Z,101288.78
2023-01-17T11:46:23.082Z,101314.31
2023-01-17T11:48:56.187Z,101307.34
2023-01-17T11:51:31.650Z,101305.34
2023-01-17T11:54:15.602Z,101287.03
2023-01-17T11:56:46.719Z,101299.47
2023-01-17T11:59:39.159Z,101299.31
2023-01-17T12:02:49.797Z,101311.59
2023-01-17T12:05:40.329Z,101315.13
2023-01-17T12:08:24.323Z,101306.16
2023-01-17T12:11:02.870Z,101302.63
2023-01-17T12:14:02.474Z,101320.28
2023-01-17T12:16:44.815Z,101332.44
2023-01-17T12:19:33.921Z,101329.00
2023-01-17T12:22:17.960Z,101315.28
2023-01-17T12:25:04.956Z,101320.41
2023-01-17T12:27:43.516Z,101315.22
2023-01-17T12:30:33.718Z,101324.72
2023-01-17T12:33:26.215Z,101317.81
2023-01-17T12:36:00.262Z,101313.56
2023-01-17T12:38:36.611Z,101295.91
2023-01-17T12:41:13.159Z,101281.91
2023-01-17T12:43:43.755Z,101281.16
2023-01-17T12:46:21.470Z,101289.03
2023-01-17T12:48:54.232Z,101303.94
2023-01-17T12:51:29.791Z,101312.75
2023-01-17T12:54:04.697Z,101316.22
2023-01-17T12:56:39.596Z,101304.84
2023-01-17T12:59:15.651Z,101299.75
2023-01-17T13:01:57.968Z,101280.41
2023-01-17T13:04:31.368Z,101307.50
2023-01-17T13:07:12.099Z,101267.22
2023-01-17T13:09:48.292Z,101310.03
2023-01-17T13:12:21.915Z,101272.44
2023-01-17T13:14:51.292Z,101297.91
2023-01-17T13:17:33.318Z,101289.03
2023-01-17T13:20:10.302Z,101310.22
2023-01-17T13:22:40.984Z,101310.31
2023-01-17T13:25:23.674Z,101302.38
2023-01-17T13:28:15.412Z,101315.50
2023-01-17T13:31:07.279Z,101290.19
2023-01-17T13:33:56.475Z,101278.81
2023-01-17T13:36:41.871Z,101313.78
2023-01-17T13:39:32.556Z,101312.91
2023-01-17T13:42:13.706Z,101312.06
2023-01-17T13:44:44.314Z,101306.75
2023-01-17T13:47:39.247Z,101309.34
2023-01-17T13:50:46.862Z,101304.00
2023-01-17T13:53:49.402Z,101303.25
2023-01-17T13:56:30.727Z,101292.69
2023-01-17T13:59:27.479Z,101300.59
2023-01-17T14:01:58.995Z,101302.16
2023-01-17T14:05:08.650Z,101306.59
2023-01-17T14:07:44.862Z,101313.38
2023-01-17T14:10:34.281Z,101298.47
2023-01-17T14:13:04.650Z,101315.88
2023-01-17T14:15:36.668Z,101320.25
2023-01-17T14:18:08.661Z,101328.00
2023-01-17T14:20:52.913Z,101322.75
2023-01-17T14:23:50.409Z,101330.53
2023-01-17T14:26:39.312Z,101325.34
2023-01-17T14:29:48.429Z,101334.75
2023-01-17T14:32:20.484Z,101283.78
2023-01-17T14:34:53.678Z,101330.38
2023-01-17T14:37:32.103Z,101311.16
2023-01-17T14:40:02.564Z,101321.50
2023-01-17T14:42:34.339Z,101326.06
2023-01-17T14:45:07.325Z,101311.28
2023-01-17T14:47:39.829Z,101303.09
2023-01-17T14:50:21.683Z,101311.09
2023-01-17T14:53:20.994Z,101325.91
2023-01-17T14:55:58.975Z,101304.13
2023-01-17T14:58:30.658Z,101314.63
2023-01-17T15:01:02.497Z,101293.59
2023-01-17T15:03:35.569Z,101312.72
2023-01-17T15:06:13.859Z,101318.00
2023-01-17T15:08:43.297Z,101330.13
2023-01-17T15:11:19.016Z,101318.91
2023-01-17T15:13:50.937Z,101318.00
2023-01-17T15:16:23.906Z,101317.06
2023-01-17T15:18:54.429Z,101312.72
2023-01-17T15:21:27.948Z,101317.81
2023-01-17T15:23:59.688Z,101324.75
2023-01-17T15:26:33.716Z,101334.19
2023-01-17T15:29:07.068Z,101328.19
2023-01-17T15:31:44.769Z,101329.91
2023-01-17T15:34:24.385Z,101331.41
2023-01-17T15:36:57.796Z,101340.19
2023-01-17T15:39:30.766Z,101341.88
2023-01-17T15:42:02.413Z,101334.72
2023-01-17T15:44:48.651Z,101334.84
2023-01-17T15:47:30.515Z,101312.00
2023-01-17T15:50:00.652Z,101340.09
2023-01-17T15:52:31.571Z,101342.69
2023-01-17T15:55:12.898Z,101343.56
2023-01-17T15:57:44.468Z,101324.19
2023-01-17T16:00:22.443Z,101334.91
2023-01-17T16:02:55.915Z,101327.03
2023-01-17T16:05:42.173Z,101334.03
2023-01-17T16:08:32.582Z,101322.72
2023-01-17T16:11:03.718Z,101313.91
2023-01-17T16:13:34.352Z,101328.91
2023-01-17T16:16:14.791Z,101331.50
2023-01-17T16:18:44.883Z,101335.03
2023-01-17T16:21:23.184Z,101339.34
2023-01-17T16:23:54.336Z,101339.00
2023-01-17T16:26:23.934Z,101346.06
2023-01-17T16:28:53.079Z,101345.81
2023-01-17T16:31:22.214Z,101349.34
2023-01-17T16:33:52.570Z,101337.03
2023-01-17T16:36:23.282Z,101365.00
2023-01-17T16:38:54.448Z,101357.09
2023-01-17T16:41:23.952Z,101362.22
2023-01-17T16:44:00.485Z,101370.19
2023-01-17T16:46:30.311Z,101359.81
2023-01-17T16:49:01.397Z,101355.38
2023-01-17T16:51:30.599Z,101347.44
2023-01-17T16:54:02.311Z,101362.41
2023-01-17T16:56:31.606Z,101345.66
2023-01-17T16:59:00.656Z,101367.66
2023-01-17T17:01:30.300Z,101335.22
2023-01-17T17:03:59.444Z,101367.56
2023-01-17T17:06:28.568Z,101372.03
2023-01-17T17:08:57.587Z,101363.41
2023-01-17T17:11:28.308Z,101350.09
2023-01-17T17:13:57.419Z,101375.53
2023-01-17T17:16:30.271Z,101385.97
2023-01-17T17:19:01.749Z,101392.03
2023-01-17T17:21:32.234Z,101370.09
2023-01-17T17:24:02.576Z,101393.72
2023-01-17T17:26:35.354Z,101390.28
2023-01-17T17:29:05.585Z,101402.41
2023-01-17T17:31:34.672Z,101407.59
2023-01-17T17:34:07.777Z,101402.41
2023-01-17T17:36:37.649Z,101422.38
2023-01-17T17:39:09.635Z,101421.47
2023-01-17T17:41:43.896Z,101410.16
2023-01-17T17:44:13.258Z,101414.56
2023-01-17T17:46:42.575Z,101416.28
2023-01-17T17:49:11.815Z,101405.94
2023-01-17T17:51:42.559Z,101409.38
2023-01-17T17:54:13.215Z,101409.47
2023-01-17T17:56:47.790Z,101412.09
2023-01-17T17:59:18.835Z,101399.00
2023-01-17T18:01:52.828Z,101416.41
2023-01-17T18:04:22.539Z,101437.06
2023-01-17T18:06:51.806Z,101369.69
2023-01-17T18:09:21.368Z,101374.75
2023-01-17T18:11:52.161Z,101438.91
2023-01-17T18:14:24.350Z,101305.78
2023-01-17T18:16:53.761Z,101397.91
2023-01-17T18:19:25.402Z,101268.66
2023-01-17T18:21:55.963Z,101351.88
2023-01-17T18:24:26.585Z,101270.88
2023-01-17T18:26:58.765Z,101231.72
2023-01-17T18:29:29.045Z,101299.72
2023-01-17T18:31:58.344Z,101401.84
2023-01-17T18:34:29.789Z,101225.69
2023-01-17T18:36:59.598Z,101457.25
2023-01-17T18:39:30.457Z,101358.19
2023-01-17T18:42:01.585Z,101295.94
2023-01-17T18:44:31.417Z,101417.56
2023-01-17T18:47:05.187Z,101386.63
2023-01-17T18:49:34.543Z,101334.72
2023-01-17T18:52:03.967Z,101409.38
2023-01-17T18:54:33.300Z,101344.66
2023-01-17T18:57:04.082Z,101317.34
2023-01-17T18:59:33.293Z,101442.91
2023-01-17T19:02:02.492Z,101429.28
2023-01-17T19:04:34.365Z,101346.47
2023-01-17T19:07:03.658Z,101353.34
2023-01-17T19:09:33.240Z,101442.00
2023-01-17T19:12:04.036Z,101472.88
2023-01-17T19:14:33.290Z,101339.31
2023-01-17T19:17:02.528Z,101394.00
2023-01-17T19:19:31.952Z,101391.00
2023-01-17T19:22:01.196Z,101332.16
2023-01-17T19:24:30.393Z,101391.09
2023-01-17T19:26:59.669Z,101385.63
2023-01-17T19:29:30.518Z,101507.78
2023-01-17T19:31:59.789Z,101499.97
2023-01-17T19:34:29.018Z,101365.34
2023-01-17T19:36:58.249Z,101458.69
2023-01-17T19:39:29.101Z,101343.38
2023-01-17T19:41:58.298Z,101427.63
2023-01-17T19:44:29.072Z,101450.69
2023-01-17T19:46:58.397Z,101402.81
2023-01-17T19:49:27.655Z,101465.06
2023-01-17T19:51:56.898Z,101366.97
2023-01-17T19:54:26.151Z,101404.75
2023-01-17T19:56:55.426Z,101463.69
2023-01-17T19:59:24.638Z,101427.00
2023-01-17T20:01:55.789Z,101453.16
2023-01-17T20:04:25.910Z,101517.66
2023-01-17T20:06:58.159Z,101494.03
2023-01-17T20:09:28.226Z,101500.25
2023-01-17T20:11:57.735Z,101521.19
2023-01-17T20:14:27.492Z,101518.53
2023-01-17T20:16:58.243Z,101368.94
2023-01-17T20:19:27.576Z,101390.69
2023-01-17T20:21:56.803Z,101421.53
2023-01-17T20:24:26.040Z,101524.50
2023-01-17T20:26:55.294Z,101414.84
2023-01-17T20:29:24.593Z,101473.50
2023-01-17T20:31:54.177Z,101403.94
2023-01-17T20:34:26.389Z,101447.09
2023-01-17T20:36:58.436Z,101432.28
2023-01-17T20:39:27.776Z,101545.22
2023-01-17T20:41:58.136Z,101308.47
2023-01-17T20:44:27.467Z,101532.88
2023-01-17T20:46:56.689Z,101517.16
2023-01-17T20:49:27.769Z,101391.41
2023-01-17T20:51:58.400Z,101534.16
2023-01-17T20:54:28.030Z,101510.50
2023-01-17T20:56:57.288Z,101446.84
2023-01-17T20:59:26.570Z,101406.44
2023-01-17T21:01:55.824Z,101546.09
2023-01-17T21:04:27.416Z,101507.97
2023-01-17T21:06:57.970Z,101438.56
2023-01-17T21:09:27.427Z,101530.34
2023-01-17T21:12:01.505Z,101467.09
2023-01-17T21:14:31.305Z,101568.19
2023-01-17T21:17:00.800Z,101530.34
2023-01-17T21:19:32.059Z,101535.63
2023-01-17T21:22:01.904Z,101431.28
2023-01-17T21:24:31.201Z,101504.66
2023-01-17T21:27:01.000Z,101423.19
2023-01-17T21:29:32.069Z,101571.75
2023-01-17T21:32:01.415Z,101467.19
2023-01-17T21:34:33.918Z,101584.16
2023-01-17T21:37:03.234Z,101499.69
2023-01-17T21:39:32.661Z,101490.38
2023-01-17T21:42:01.923Z,101439.66
2023-01-17T21:44:36.635Z,101436.94
2023-01-17T21:47:06.021Z,101633.53
2023-01-17T21:49:36.809Z,101569.34
2023-01-17T21:52:21.327Z,101479.84
2023-01-17T21:55:07.447Z,101518.22
2023-01-17T21:57:54.106Z,101512.50
2023-01-17T22:00:25.146Z,101584.13
2023-01-17T22:02:54.509Z,101496.25
2023-01-17T22:05:25.388Z,101459.34
2023-01-17T22:08:13.093Z,101494.41
2023-01-17T22:10:46.349Z,101501.69
2023-01-17T22:13:16.295Z,101505.06
2023-01-17T22:15:45.873Z,101386.28
2023-01-17T22:18:16.096Z,101515.81
2023-01-17T22:20:46.835Z,101499.69
2023-01-17T22:23:16.101Z,101501.69
2023-01-17T22:25:45.414Z,101603.25
2023-01-17T22:28:14.835Z,101649.06
2023-01-17T22:30:44.146Z,101629.13
2023-01-17T22:33:13.397Z,101511.03
2023-01-17T22:35:42.683Z,101602.75
2023-01-17T22:38:13.373Z,101592.81
2023-01-17T22:40:42.781Z,101620.38
2023-01-17T22:43:11.943Z,101564.09
2023-01-17T22:45:41.286Z,101616.38
2023-01-17T22:48:10.783Z,101568.72
2023-01-17T22:50:39.990Z,101627.06
2023-01-17T22:53:10.862Z,101642.09
2023-01-17T22:55:41.609Z,101537.00
2023-01-17T22:58:10.791Z,101502.03
2023-01-17T23:00:40.195Z,101628.72
2023-01-17T23:03:09.503Z,101569.81
2023-01-17T23:05:47.485Z,101562.56
2023-01-17T23:08:16.857Z,101653.00
2023-01-17T23:11:05.345Z,101606.69
2023-01-17T23:13:34.552Z,101628.66
2023-01-17T23:16:24.365Z,101632.00
2023-01-17T23:19:10.727Z,101504.00
2023-01-17T23:21:56.948Z,101627.44
2023-01-17T23:24:26.263Z,101645.97
2023-01-17T23:27:13.768Z,101598.78
2023-01-17T23:29:43.014Z,101632.41
2023-01-17T23:32:12.383Z,101667.75
2023-01-17T23:34:41.802Z,101652.19
2023-01-17T23:37:11.082Z,101622.09
2023-01-17T23:39:40.346Z,101634.66
2023-01-17T23:42:28.299Z,101667.94
2023-01-17T23:44:57.567Z,101709.84
2023-01-17T23:47:26.790Z,101668.81
2023-01-17T23:49:57.017Z,101705.28
2023-01-17T23:52:26.172Z,101689.47
2023-01-17T23:54:55.403Z,101738.34
2023-01-17T23:57:26.277Z,101608.31
2023-01-17T23:59:55.457Z,101497.75
